sensor_id;sensor_type;location;lat;lon;timestamp;P1;durP1;ratioP1;P2;durP2;ratioP2
11121;SDS011;5615;49.304;10.576;2023-05-10T00:00:17;6.67;;;5.97;;
11121;SDS011;5615;49.304;10.576;2023-05-10T00:02:45;9.00;;;6.20;;
11121;SDS011;5615;49.304;10.576;2023-05-10T00:05:12;7.50;;;6.80;;
11121;SDS011;5615;49.304;10.576;2023-05-10T00:07:38;6.90;;;6.20;;
11121;SDS011;5615;49.304;10.576;2023-05-10T00:10:05;6.93;;;6.20;;
11121;SDS011;5615;49.304;10.576;2023-05-10T00:12:34;6.53;;;5.93;;
11121;SDS011;5615;49.304;10.576;2023-05-10T00:15:00;6.43;;;5.83;;
11121;SDS011;5615;49.304;10.576;2023-05-10T00:17:27;7.10;;;6.40;;
11121;SDS011;5615;49.304;10.576;2023-05-10T00:19:54;6.77;;;5.63;;
11121;SDS011;5615;49.304;10.576;2023-05-10T00:22:21;9.90;;;7.60;;
11121;SDS011;5615;49.304;10.576;2023-05-10T00:24:47;8.73;;;7.83;;
11121;SDS011;5615;49.304;10.576;2023-05-10T00:27:14;6.90;;;5.97;;
11121;SDS011;5615;49.304;10.576;2023-05-10T00:29:42;8.33;;;7.53;;
11121;SDS011;5615;49.304;10.576;2023-05-10T00:32:09;7.20;;;6.27;;
11121;SDS011;5615;49.304;10.576;2023-05-10T00:34:35;8.03;;;6.60;;
11121;SDS011;5615;49.304;10.576;2023-05-10T00:37:02;8.93;;;6.90;;
11121;SDS011;5615;49.304;10.576;2023-05-10T00:39:28;8.03;;;6.77;;
11121;SDS011;5615;49.304;10.576;2023-05-10T00:41:55;7.47;;;6.77;;
11121;SDS011;5615;49.304;10.576;2023-05-10T00:44:22;11.57;;;10.53;;
11121;SDS011;5615;49.304;10.576;2023-05-10T00:46:50;7.23;;;6.53;;
11121;SDS011;5615;49.304;10.576;2023-05-10T00:49:16;6.50;;;5.90;;
11121;SDS011;5615;49.304;10.576;2023-05-10T00:51:43;6.47;;;5.87;;
11121;SDS011;5615;49.304;10.576;2023-05-10T00:54:10;7.07;;;5.57;;
11121;SDS011;5615;49.304;10.576;2023-05-10T00:56:38;6.63;;;5.93;;
11121;SDS011;5615;49.304;10.576;2023-05-10T00:59:05;6.20;;;5.60;;
11121;SDS011;5615;49.304;10.576;2023-05-10T01:01:32;7.80;;;5.67;;
11121;SDS011;5615;49.304;10.576;2023-05-10T01:04:00;6.10;;;5.50;;
11121;SDS011;5615;49.304;10.576;2023-05-10T01:06:28;6.17;;;4.93;;
11121;SDS011;5615;49.304;10.576;2023-05-10T01:08:54;5.43;;;4.77;;
11121;SDS011;5615;49.304;10.576;2023-05-10T01:11:21;5.20;;;4.37;;
11121;SDS011;5615;49.304;10.576;2023-05-10T01:13:51;5.20;;;4.70;;
11121;SDS011;5615;49.304;10.576;2023-05-10T01:16:21;5.00;;;4.50;;
11121;SDS011;5615;49.304;10.576;2023-05-10T01:18:48;4.83;;;4.00;;
11121;SDS011;5615;49.304;10.576;2023-05-10T01:21:23;5.03;;;4.57;;
11121;SDS011;5615;49.304;10.576;2023-05-10T01:30:16;5.50;;;4.03;;
11121;SDS011;5615;49.304;10.576;2023-05-10T01:33:10;4.00;;;3.60;;
11121;SDS011;5615;49.304;10.576;2023-05-10T01:35:40;4.37;;;3.80;;
11121;SDS011;5615;49.304;10.576;2023-05-10T01:38:13;4.70;;;4.03;;
11121;SDS011;5615;49.304;10.576;2023-05-10T01:40:48;4.47;;;4.07;;
11121;SDS011;5615;49.304;10.576;2023-05-10T01:43:22;4.00;;;3.70;;
11121;SDS011;5615;49.304;10.576;2023-05-10T01:45:57;4.13;;;3.73;;
11121;SDS011;5615;49.304;10.576;2023-05-10T01:48:35;4.67;;;4.00;;
11121;SDS011;5615;49.304;10.576;2023-05-10T01:51:03;4.10;;;3.70;;
11121;SDS011;5615;49.304;10.576;2023-05-10T01:53:31;3.87;;;3.43;;
11121;SDS011;5615;49.304;10.576;2023-05-10T01:56:00;3.67;;;3.27;;
11121;SDS011;5615;49.304;10.576;2023-05-10T01:58:28;2.87;;;2.63;;
11121;SDS011;5615;49.304;10.576;2023-05-10T02:00:57;2.43;;;2.20;;
11121;SDS011;5615;49.304;10.576;2023-05-10T02:03:27;2.60;;;2.40;;
11121;SDS011;5615;49.304;10.576;2023-05-10T02:05:56;2.53;;;2.33;;
11121;SDS011;5615;49.304;10.576;2023-05-10T02:08:23;2.80;;;2.60;;
11121;SDS011;5615;49.304;10.576;2023-05-10T02:10:52;3.43;;;2.50;;
11121;SDS011;5615;49.304;10.576;2023-05-10T02:13:21;2.27;;;2.07;;
11121;SDS011;5615;49.304;10.576;2023-05-10T02:15:50;4.40;;;2.17;;
11121;SDS011;5615;49.304;10.576;2023-05-10T02:18:19;2.30;;;1.90;;
11121;SDS011;5615;49.304;10.576;2023-05-10T02:20:47;2.10;;;1.90;;
11121;SDS011;5615;49.304;10.576;2023-05-10T02:23:15;2.37;;;2.17;;
11121;SDS011;5615;49.304;10.576;2023-05-10T02:25:43;3.03;;;1.90;;
11121;SDS011;5615;49.304;10.576;2023-05-10T02:28:12;2.07;;;1.83;;
11121;SDS011;5615;49.304;10.576;2023-05-10T02:30:40;1.87;;;1.70;;
11121;SDS011;5615;49.304;10.576;2023-05-10T02:33:07;3.20;;;1.90;;
11121;SDS011;5615;49.304;10.576;2023-05-10T02:35:35;2.10;;;2.00;;
11121;SDS011;5615;49.304;10.576;2023-05-10T02:38:03;2.33;;;1.70;;
11121;SDS011;5615;49.304;10.576;2023-05-10T02:40:33;2.63;;;2.00;;
11121;SDS011;5615;49.304;10.576;2023-05-10T02:43:02;1.77;;;1.50;;
11121;SDS011;5615;49.304;10.576;2023-05-10T02:45:32;1.93;;;1.40;;
11121;SDS011;5615;49.304;10.576;2023-05-10T02:48:01;1.50;;;1.40;;
11121;SDS011;5615;49.304;10.576;2023-05-10T02:50:28;1.83;;;1.50;;
11121;SDS011;5615;49.304;10.576;2023-05-10T02:52:59;1.70;;;1.60;;
11121;SDS011;5615;49.304;10.576;2023-05-10T02:55:30;1.40;;;1.30;;
11121;SDS011;5615;49.304;10.576;2023-05-10T02:58:00;1.40;;;1.30;;
11121;SDS011;5615;49.304;10.576;2023-05-10T03:00:28;1.53;;;1.43;;
11121;SDS011;5615;49.304;10.576;2023-05-10T03:02:55;1.30;;;1.20;;
11121;SDS011;5615;49.304;10.576;2023-05-10T03:05:22;1.70;;;1.53;;
11121;SDS011;5615;49.304;10.576;2023-05-10T03:07:48;1.50;;;1.40;;
11121;SDS011;5615;49.304;10.576;2023-05-10T03:10:15;1.83;;;1.60;;
11121;SDS011;5615;49.304;10.576;2023-05-10T03:12:47;1.50;;;1.40;;
11121;SDS011;5615;49.304;10.576;2023-05-10T03:15:28;1.60;;;1.50;;
11121;SDS011;5615;49.304;10.576;2023-05-10T03:18:04;1.87;;;1.60;;
11121;SDS011;5615;49.304;10.576;2023-05-10T03:20:36;1.40;;;1.30;;
11121;SDS011;5615;49.304;10.576;2023-05-10T03:23:07;1.63;;;1.50;;
11121;SDS011;5615;49.304;10.576;2023-05-10T03:25:38;1.30;;;1.20;;
11121;SDS011;5615;49.304;10.576;2023-05-10T03:28:06;7.13;;;1.50;;
11121;SDS011;5615;49.304;10.576;2023-05-10T03:30:35;1.73;;;1.60;;
11121;SDS011;5615;49.304;10.576;2023-05-10T03:33:06;2.60;;;1.40;;
11121;SDS011;5615;49.304;10.576;2023-05-10T03:35:32;1.60;;;1.50;;
11121;SDS011;5615;49.304;10.576;2023-05-10T03:37:59;1.50;;;1.40;;
11121;SDS011;5615;49.304;10.576;2023-05-10T03:40:26;3.23;;;1.67;;
11121;SDS011;5615;49.304;10.576;2023-05-10T03:42:53;2.20;;;1.50;;
11121;SDS011;5615;49.304;10.576;2023-05-10T03:45:20;1.70;;;1.60;;
11121;SDS011;5615;49.304;10.576;2023-05-10T03:47:48;2.67;;;1.47;;
11121;SDS011;5615;49.304;10.576;2023-05-10T03:50:15;2.07;;;1.40;;
11121;SDS011;5615;49.304;10.576;2023-05-10T03:52:42;3.23;;;1.70;;
11121;SDS011;5615;49.304;10.576;2023-05-10T03:55:09;2.20;;;1.67;;
11121;SDS011;5615;49.304;10.576;2023-05-10T03:57:36;1.90;;;1.80;;
11121;SDS011;5615;49.304;10.576;2023-05-10T04:00:02;3.13;;;1.87;;
11121;SDS011;5615;49.304;10.576;2023-05-10T04:02:30;2.10;;;1.90;;
11121;SDS011;5615;49.304;10.576;2023-05-10T04:04:58;2.10;;;1.90;;
11121;SDS011;5615;49.304;10.576;2023-05-10T04:07:24;2.73;;;2.10;;
11121;SDS011;5615;49.304;10.576;2023-05-10T04:09:51;2.33;;;1.90;;
11121;SDS011;5615;49.304;10.576;2023-05-10T04:12:18;2.63;;;2.00;;
11121;SDS011;5615;49.304;10.576;2023-05-10T04:14:44;2.30;;;2.10;;
11121;SDS011;5615;49.304;10.576;2023-05-10T04:17:11;6.73;;;2.43;;
11121;SDS011;5615;49.304;10.576;2023-05-10T04:19:38;2.97;;;2.37;;
11121;SDS011;5615;49.304;10.576;2023-05-10T04:22:05;2.37;;;2.17;;
11121;SDS011;5615;49.304;10.576;2023-05-10T04:24:32;2.30;;;2.10;;
11121;SDS011;5615;49.304;10.576;2023-05-10T04:26:59;3.00;;;2.30;;
11121;SDS011;5615;49.304;10.576;2023-05-10T04:29:25;2.70;;;2.50;;
11121;SDS011;5615;49.304;10.576;2023-05-10T04:31:52;2.57;;;2.37;;
11121;SDS011;5615;49.304;10.576;2023-05-10T04:34:19;2.70;;;2.50;;
11121;SDS011;5615;49.304;10.576;2023-05-10T04:36:46;2.83;;;2.63;;
11121;SDS011;5615;49.304;10.576;2023-05-10T04:39:14;4.37;;;2.30;;
11121;SDS011;5615;49.304;10.576;2023-05-10T04:41:41;4.87;;;2.47;;
11121;SDS011;5615;49.304;10.576;2023-05-10T04:44:07;2.97;;;2.67;;
11121;SDS011;5615;49.304;10.576;2023-05-10T04:46:34;2.80;;;2.60;;
11121;SDS011;5615;49.304;10.576;2023-05-10T04:49:00;3.50;;;3.20;;
11121;SDS011;5615;49.304;10.576;2023-05-10T04:51:27;4.93;;;2.90;;
11121;SDS011;5615;49.304;10.576;2023-05-10T04:53:54;3.70;;;3.40;;
11121;SDS011;5615;49.304;10.576;2023-05-10T04:56:21;3.57;;;3.27;;
11121;SDS011;5615;49.304;10.576;2023-05-10T04:58:48;3.97;;;3.40;;
11121;SDS011;5615;49.304;10.576;2023-05-10T05:01:15;5.07;;;3.97;;
11121;SDS011;5615;49.304;10.576;2023-05-10T05:03:42;5.70;;;3.47;;
11121;SDS011;5615;49.304;10.576;2023-05-10T05:06:08;4.10;;;3.80;;
11121;SDS011;5615;49.304;10.576;2023-05-10T05:08:35;5.30;;;4.10;;
11121;SDS011;5615;49.304;10.576;2023-05-10T05:11:01;4.83;;;4.43;;
11121;SDS011;5615;49.304;10.576;2023-05-10T05:13:29;5.40;;;4.90;;
11121;SDS011;5615;49.304;10.576;2023-05-10T05:15:56;5.77;;;4.30;;
11121;SDS011;5615;49.304;10.576;2023-05-10T05:18:23;5.40;;;4.90;;
11121;SDS011;5615;49.304;10.576;2023-05-10T05:20:49;4.97;;;4.43;;
11121;SDS011;5615;49.304;10.576;2023-05-10T05:23:16;5.33;;;4.83;;
11121;SDS011;5615;49.304;10.576;2023-05-10T05:25:43;5.50;;;5.00;;
11121;SDS011;5615;49.304;10.576;2023-05-10T05:28:10;8.70;;;5.47;;
11121;SDS011;5615;49.304;10.576;2023-05-10T05:30:38;5.30;;;4.83;;
11121;SDS011;5615;49.304;10.576;2023-05-10T05:33:04;5.57;;;5.07;;
11121;SDS011;5615;49.304;10.576;2023-05-10T05:35:31;5.10;;;4.70;;
11121;SDS011;5615;49.304;10.576;2023-05-10T05:37:57;4.53;;;4.13;;
11121;SDS011;5615;49.304;10.576;2023-05-10T05:40:24;4.60;;;4.20;;
11121;SDS011;5615;49.304;10.576;2023-05-10T05:42:51;5.33;;;4.87;;
11121;SDS011;5615;49.304;10.576;2023-05-10T05:45:18;6.03;;;5.53;;
11121;SDS011;5615;49.304;10.576;2023-05-10T05:47:46;5.33;;;4.83;;
11121;SDS011;5615;49.304;10.576;2023-05-10T05:50:13;9.17;;;5.20;;
11121;SDS011;5615;49.304;10.576;2023-05-10T05:52:39;5.10;;;4.63;;
11121;SDS011;5615;49.304;10.576;2023-05-10T05:55:06;5.63;;;4.93;;
11121;SDS011;5615;49.304;10.576;2023-05-10T05:57:33;5.40;;;4.70;;
11121;SDS011;5615;49.304;10.576;2023-05-10T06:00:00;5.53;;;4.63;;
11121;SDS011;5615;49.304;10.576;2023-05-10T06:02:27;5.03;;;4.53;;
11121;SDS011;5615;49.304;10.576;2023-05-10T06:04:55;6.27;;;4.43;;
11121;SDS011;5615;49.304;10.576;2023-05-10T06:07:22;5.20;;;4.10;;
11121;SDS011;5615;49.304;10.576;2023-05-10T06:09:49;4.50;;;3.97;;
11121;SDS011;5615;49.304;10.576;2023-05-10T06:12:15;4.50;;;4.10;;
11121;SDS011;5615;49.304;10.576;2023-05-10T06:14:42;3.97;;;3.60;;
11121;SDS011;5615;49.304;10.576;2023-05-10T06:17:08;3.80;;;3.30;;
11121;SDS011;5615;49.304;10.576;2023-05-10T06:19:35;3.87;;;3.53;;
11121;SDS011;5615;49.304;10.576;2023-05-10T06:22:03;4.70;;;3.63;;
11121;SDS011;5615;49.304;10.576;2023-05-10T06:24:30;4.20;;;3.80;;
11121;SDS011;5615;49.304;10.576;2023-05-10T06:26:56;4.30;;;3.90;;
11121;SDS011;5615;49.304;10.576;2023-05-10T06:29:25;6.07;;;3.63;;
11121;SDS011;5615;49.304;10.576;2023-05-10T06:31:51;4.00;;;3.70;;
11121;SDS011;5615;49.304;10.576;2023-05-10T06:34:19;4.73;;;3.87;;
11121;SDS011;5615;49.304;10.576;2023-05-10T06:36:45;3.90;;;3.60;;
11121;SDS011;5615;49.304;10.576;2023-05-10T06:39:13;7.47;;;3.73;;
11121;SDS011;5615;49.304;10.576;2023-05-10T06:41:40;5.33;;;4.13;;
11121;SDS011;5615;49.304;10.576;2023-05-10T06:44:06;4.47;;;4.07;;
11121;SDS011;5615;49.304;10.576;2023-05-10T06:46:33;4.50;;;4.10;;
11121;SDS011;5615;49.304;10.576;2023-05-10T06:49:00;5.93;;;3.80;;
11121;SDS011;5615;49.304;10.576;2023-05-10T06:51:26;4.17;;;3.77;;
11121;SDS011;5615;49.304;10.576;2023-05-10T06:53:53;5.83;;;4.50;;
11121;SDS011;5615;49.304;10.576;2023-05-10T06:56:21;4.60;;;4.00;;
11121;SDS011;5615;49.304;10.576;2023-05-10T06:58:47;4.60;;;4.20;;
11121;SDS011;5615;49.304;10.576;2023-05-10T07:01:14;4.30;;;3.90;;
11121;SDS011;5615;49.304;10.576;2023-05-10T07:03:41;5.77;;;4.50;;
11121;SDS011;5615;49.304;10.576;2023-05-10T07:06:07;5.90;;;4.00;;
11121;SDS011;5615;49.304;10.576;2023-05-10T07:08:34;4.30;;;3.90;;
11121;SDS011;5615;49.304;10.576;2023-05-10T07:11:01;4.07;;;3.77;;
11121;SDS011;5615;49.304;10.576;2023-05-10T07:13:30;5.80;;;3.97;;
11121;SDS011;5615;49.304;10.576;2023-05-10T07:15:57;4.60;;;4.20;;
11121;SDS011;5615;49.304;10.576;2023-05-10T07:18:24;4.37;;;3.70;;
11121;SDS011;5615;49.304;10.576;2023-05-10T07:20:51;4.33;;;4.03;;
11121;SDS011;5615;49.304;10.576;2023-05-10T07:23:18;4.10;;;3.70;;
11121;SDS011;5615;49.304;10.576;2023-05-10T07:25:45;4.53;;;3.40;;
11121;SDS011;5615;49.304;10.576;2023-05-10T07:28:12;3.70;;;3.40;;
11121;SDS011;5615;49.304;10.576;2023-05-10T07:30:40;4.10;;;3.67;;
11121;SDS011;5615;49.304;10.576;2023-05-10T07:33:08;3.60;;;3.30;;
11121;SDS011;5615;49.304;10.576;2023-05-10T07:35:34;6.43;;;4.13;;
11121;SDS011;5615;49.304;10.576;2023-05-10T07:38:01;3.73;;;3.43;;
11121;SDS011;5615;49.304;10.576;2023-05-10T07:40:28;5.00;;;3.30;;
11121;SDS011;5615;49.304;10.576;2023-05-10T07:42:55;6.13;;;2.83;;
11121;SDS011;5615;49.304;10.576;2023-05-10T07:45:22;3.70;;;3.37;;
11121;SDS011;5615;49.304;10.576;2023-05-10T07:47:50;4.33;;;2.70;;
11121;SDS011;5615;49.304;10.576;2023-05-10T07:50:16;4.07;;;3.10;;
11121;SDS011;5615;49.304;10.576;2023-05-10T07:52:43;5.67;;;3.13;;
11121;SDS011;5615;49.304;10.576;2023-05-10T07:55:10;3.67;;;2.70;;
11121;SDS011;5615;49.304;10.576;2023-05-10T07:57:37;4.73;;;3.00;;
11121;SDS011;5615;49.304;10.576;2023-05-10T08:00:04;4.63;;;3.03;;
11121;SDS011;5615;49.304;10.576;2023-05-10T08:02:32;3.85;;;2.85;;
11121;SDS011;5615;49.304;10.576;2023-05-10T08:05:01;5.47;;;2.80;;
11121;SDS011;5615;49.304;10.576;2023-05-10T08:07:27;3.42;;;2.67;;
11121;SDS011;5615;49.304;10.576;2023-05-10T08:09:54;3.72;;;2.70;;
11121;SDS011;5615;49.304;10.576;2023-05-10T08:12:20;3.63;;;2.78;;
11121;SDS011;5615;49.304;10.576;2023-05-10T08:14:47;4.28;;;3.00;;
11121;SDS011;5615;49.304;10.576;2023-05-10T08:17:14;4.45;;;2.65;;
11121;SDS011;5615;49.304;10.576;2023-05-10T08:19:40;3.80;;;2.60;;
11121;SDS011;5615;49.304;10.576;2023-05-10T08:22:08;4.20;;;2.50;;
11121;SDS011;5615;49.304;10.576;2023-05-10T08:24:35;2.70;;;2.40;;
11121;SDS011;5615;49.304;10.576;2023-05-10T08:27:03;3.80;;;2.60;;
11121;SDS011;5615;49.304;10.576;2023-05-10T08:29:30;3.53;;;2.80;;
11121;SDS011;5615;49.304;10.576;2023-05-10T08:31:57;4.03;;;2.55;;
11121;SDS011;5615;49.304;10.576;2023-05-10T08:34:23;3.40;;;2.53;;
11121;SDS011;5615;49.304;10.576;2023-05-10T08:36:50;3.58;;;2.70;;
11121;SDS011;5615;49.304;10.576;2023-05-10T08:39:18;4.50;;;2.17;;
11121;SDS011;5615;49.304;10.576;2023-05-10T08:41:45;3.00;;;2.38;;
11121;SDS011;5615;49.304;10.576;2023-05-10T08:44:13;3.95;;;1.88;;
11121;SDS011;5615;49.304;10.576;2023-05-10T08:46:43;2.60;;;2.40;;
11121;SDS011;5615;49.304;10.576;2023-05-10T08:49:13;4.60;;;2.38;;
11121;SDS011;5615;49.304;10.576;2023-05-10T08:51:41;2.92;;;2.58;;
11121;SDS011;5615;49.304;10.576;2023-05-10T08:54:13;3.88;;;2.30;;
11121;SDS011;5615;49.304;10.576;2023-05-10T08:56:42;3.05;;;2.75;;
11121;SDS011;5615;49.304;10.576;2023-05-10T08:59:08;3.65;;;3.00;;
11121;SDS011;5615;49.304;10.576;2023-05-10T09:01:36;4.03;;;2.90;;
11121;SDS011;5615;49.304;10.576;2023-05-10T09:04:03;3.45;;;2.80;;
11121;SDS011;5615;49.304;10.576;2023-05-10T09:06:30;3.10;;;2.80;;
11121;SDS011;5615;49.304;10.576;2023-05-10T09:08:57;5.63;;;3.20;;
11121;SDS011;5615;49.304;10.576;2023-05-10T09:11:24;4.80;;;2.55;;
11121;SDS011;5615;49.304;10.576;2023-05-10T09:13:55;3.63;;;2.90;;
11121;SDS011;5615;49.304;10.576;2023-05-10T09:16:22;6.82;;;3.65;;
11121;SDS011;5615;49.304;10.576;2023-05-10T09:18:49;3.58;;;3.28;;
11121;SDS011;5615;49.304;10.576;2023-05-10T09:21:16;3.40;;;3.10;;
11121;SDS011;5615;49.304;10.576;2023-05-10T09:23:42;3.20;;;2.90;;
11121;SDS011;5615;49.304;10.576;2023-05-10T09:26:10;3.33;;;3.00;;
11121;SDS011;5615;49.304;10.576;2023-05-10T09:28:50;3.88;;;2.90;;
11121;SDS011;5615;49.304;10.576;2023-05-10T09:31:19;3.30;;;3.00;;
11121;SDS011;5615;49.304;10.576;2023-05-10T09:33:46;5.88;;;3.20;;
11121;SDS011;5615;49.304;10.576;2023-05-10T09:36:13;3.80;;;3.33;;
11121;SDS011;5615;49.304;10.576;2023-05-10T09:38:50;4.68;;;3.60;;
11121;SDS011;5615;49.304;10.576;2023-05-10T09:41:18;3.38;;;2.85;;
11121;SDS011;5615;49.304;10.576;2023-05-10T09:43:45;3.50;;;3.20;;
11121;SDS011;5615;49.304;10.576;2023-05-10T09:46:12;3.57;;;2.90;;
11121;SDS011;5615;49.304;10.576;2023-05-10T09:48:44;3.47;;;2.33;;
11121;SDS011;5615;49.304;10.576;2023-05-10T09:51:18;5.72;;;2.40;;
11121;SDS011;5615;49.304;10.576;2023-05-10T09:53:45;2.30;;;2.10;;
11121;SDS011;5615;49.304;10.576;2023-05-10T09:56:12;2.27;;;2.07;;
11121;SDS011;5615;49.304;10.576;2023-05-10T09:58:39;3.23;;;1.93;;
11121;SDS011;5615;49.304;10.576;2023-05-10T10:01:09;3.77;;;2.53;;
11121;SDS011;5615;49.304;10.576;2023-05-10T10:03:40;2.50;;;2.30;;
11121;SDS011;5615;49.304;10.576;2023-05-10T10:06:09;2.75;;;2.03;;
11121;SDS011;5615;49.304;10.576;2023-05-10T10:08:36;4.43;;;2.35;;
11121;SDS011;5615;49.304;10.576;2023-05-10T10:11:03;3.47;;;2.35;;
11121;SDS011;5615;49.304;10.576;2023-05-10T10:13:29;3.22;;;2.70;;
11121;SDS011;5615;49.304;10.576;2023-05-10T10:15:57;3.20;;;2.60;;
11121;SDS011;5615;49.304;10.576;2023-05-10T10:18:24;2.58;;;2.38;;
11121;SDS011;5615;49.304;10.576;2023-05-10T10:20:52;2.22;;;2.03;;
11121;SDS011;5615;49.304;10.576;2023-05-10T10:23:21;2.92;;;2.60;;
11121;SDS011;5615;49.304;10.576;2023-05-10T10:25:48;2.53;;;2.33;;
11121;SDS011;5615;49.304;10.576;2023-05-10T10:28:20;4.20;;;2.33;;
11121;SDS011;5615;49.304;10.576;2023-05-10T10:30:52;2.28;;;2.08;;
11121;SDS011;5615;49.304;10.576;2023-05-10T10:33:27;2.17;;;2.00;;
11121;SDS011;5615;49.304;10.576;2023-05-10T10:36:06;1.75;;;1.65;;
11121;SDS011;5615;49.304;10.576;2023-05-10T10:38:38;1.77;;;1.67;;
11121;SDS011;5615;49.304;10.576;2023-05-10T10:41:28;2.05;;;1.85;;
11121;SDS011;5615;49.304;10.576;2023-05-10T10:47:01;3.70;;;2.00;;
11121;SDS011;5615;49.304;10.576;2023-05-10T10:49:30;3.13;;;2.10;;
11121;SDS011;5615;49.304;10.576;2023-05-10T10:52:13;2.50;;;2.20;;
11121;SDS011;5615;49.304;10.576;2023-05-10T10:54:43;2.50;;;2.30;;
11121;SDS011;5615;49.304;10.576;2023-05-10T10:57:17;4.18;;;3.25;;
11121;SDS011;5615;49.304;10.576;2023-05-10T10:59:45;4.00;;;3.15;;
11121;SDS011;5615;49.304;10.576;2023-05-10T11:02:26;5.80;;;4.10;;
11121;SDS011;5615;49.304;10.576;2023-05-10T11:04:59;5.30;;;4.82;;
11121;SDS011;5615;49.304;10.576;2023-05-10T11:07:25;4.40;;;4.00;;
11121;SDS011;5615;49.304;10.576;2023-05-10T11:09:53;5.20;;;4.70;;
11121;SDS011;5615;49.304;10.576;2023-05-10T11:12:21;4.93;;;4.30;;
11121;SDS011;5615;49.304;10.576;2023-05-10T11:14:49;5.10;;;4.47;;
11121;SDS011;5615;49.304;10.576;2023-05-10T11:17:22;6.07;;;4.47;;
11121;SDS011;5615;49.304;10.576;2023-05-10T11:20:05;5.13;;;4.63;;
11121;SDS011;5615;49.304;10.576;2023-05-10T11:25:17;6.27;;;5.17;;
11121;SDS011;5615;49.304;10.576;2023-05-10T11:27:43;4.83;;;4.43;;
11121;SDS011;5615;49.304;10.576;2023-05-10T11:30:11;6.13;;;4.50;;
11121;SDS011;5615;49.304;10.576;2023-05-10T11:32:38;4.53;;;4.10;;
11121;SDS011;5615;49.304;10.576;2023-05-10T11:35:06;5.30;;;4.40;;
11121;SDS011;5615;49.304;10.576;2023-05-10T11:37:34;4.30;;;3.90;;
11121;SDS011;5615;49.304;10.576;2023-05-10T11:40:00;3.90;;;3.22;;
11121;SDS011;5615;49.304;10.576;2023-05-10T11:42:29;3.33;;;3.00;;
11121;SDS011;5615;49.304;10.576;2023-05-10T11:44:56;3.40;;;3.10;;
11121;SDS011;5615;49.304;10.576;2023-05-10T11:47:23;3.42;;;2.65;;
11121;SDS011;5615;49.304;10.576;2023-05-10T11:49:49;2.80;;;2.60;;
11121;SDS011;5615;49.304;10.576;2023-05-10T11:52:18;2.97;;;2.60;;
11121;SDS011;5615;49.304;10.576;2023-05-10T11:54:45;2.80;;;2.60;;
11121;SDS011;5615;49.304;10.576;2023-05-10T11:57:17;2.45;;;2.25;;
11121;SDS011;5615;49.304;10.576;2023-05-10T11:59:46;2.38;;;2.17;;
11121;SDS011;5615;49.304;10.576;2023-05-10T12:02:13;2.65;;;2.42;;
11121;SDS011;5615;49.304;10.576;2023-05-10T12:04:40;3.80;;;2.72;;
11121;SDS011;5615;49.304;10.576;2023-05-10T12:07:07;3.30;;;2.55;;
11121;SDS011;5615;49.304;10.576;2023-05-10T12:09:34;4.75;;;2.72;;
11121;SDS011;5615;49.304;10.576;2023-05-10T12:12:01;2.50;;;2.30;;
11121;SDS011;5615;49.304;10.576;2023-05-10T12:14:28;3.40;;;2.42;;
11121;SDS011;5615;49.304;10.576;2023-05-10T12:16:59;2.65;;;2.15;;
11121;SDS011;5615;49.304;10.576;2023-05-10T12:19:26;4.15;;;2.53;;
11121;SDS011;5615;49.304;10.576;2023-05-10T12:21:52;3.50;;;2.00;;
11121;SDS011;5615;49.304;10.576;2023-05-10T12:24:19;3.50;;;2.85;;
11121;SDS011;5615;49.304;10.576;2023-05-10T12:26:46;4.53;;;2.53;;
11121;SDS011;5615;49.304;10.576;2023-05-10T12:29:13;4.72;;;2.83;;
11121;SDS011;5615;49.304;10.576;2023-05-10T12:31:51;3.03;;;2.78;;
11121;SDS011;5615;49.304;10.576;2023-05-10T12:34:24;3.85;;;2.22;;
11121;SDS011;5615;49.304;10.576;2023-05-10T12:36:51;2.33;;;2.13;;
11121;SDS011;5615;49.304;10.576;2023-05-10T12:39:18;3.63;;;2.78;;
11121;SDS011;5615;49.304;10.576;2023-05-10T12:41:44;3.38;;;2.30;;
11121;SDS011;5615;49.304;10.576;2023-05-10T12:44:11;3.93;;;2.50;;
11121;SDS011;5615;49.304;10.576;2023-05-10T12:46:38;4.13;;;2.70;;
11121;SDS011;5615;49.304;10.576;2023-05-10T12:49:04;2.78;;;2.42;;
11121;SDS011;5615;49.304;10.576;2023-05-10T12:51:32;3.20;;;2.30;;
11121;SDS011;5615;49.304;10.576;2023-05-10T12:53:59;3.95;;;2.30;;
11121;SDS011;5615;49.304;10.576;2023-05-10T12:56:26;3.70;;;2.10;;
11121;SDS011;5615;49.304;10.576;2023-05-10T12:58:52;3.08;;;2.20;;
11121;SDS011;5615;49.304;10.576;2023-05-10T13:01:19;4.40;;;2.25;;
11121;SDS011;5615;49.304;10.576;2023-05-10T13:03:45;2.42;;;1.90;;
11121;SDS011;5615;49.304;10.576;2023-05-10T13:06:13;2.63;;;2.00;;
11121;SDS011;5615;49.304;10.576;2023-05-10T13:08:41;1.98;;;1.73;;
11121;SDS011;5615;49.304;10.576;2023-05-10T13:11:07;4.00;;;1.55;;
11121;SDS011;5615;49.304;10.576;2023-05-10T13:13:34;1.85;;;1.58;;
11121;SDS011;5615;49.304;10.576;2023-05-10T13:16:01;3.40;;;1.52;;
11121;SDS011;5615;49.304;10.576;2023-05-10T13:18:27;1.95;;;1.45;;
11121;SDS011;5615;49.304;10.576;2023-05-10T13:20:54;3.10;;;1.58;;
11121;SDS011;5615;49.304;10.576;2023-05-10T13:23:21;3.00;;;1.60;;
11121;SDS011;5615;49.304;10.576;2023-05-10T13:25:49;4.53;;;1.70;;
11121;SDS011;5615;49.304;10.576;2023-05-10T13:28:16;2.05;;;1.70;;
11121;SDS011;5615;49.304;10.576;2023-05-10T13:30:42;2.53;;;1.55;;
11121;SDS011;5615;49.304;10.576;2023-05-10T13:33:09;2.90;;;1.80;;
11121;SDS011;5615;49.304;10.576;2023-05-10T13:35:35;4.13;;;2.25;;
11121;SDS011;5615;49.304;10.576;2023-05-10T13:38:02;1.70;;;1.60;;
11121;SDS011;5615;49.304;10.576;2023-05-10T13:40:29;2.47;;;1.83;;
11121;SDS011;5615;49.304;10.576;2023-05-10T13:42:57;2.28;;;1.90;;
11121;SDS011;5615;49.304;10.576;2023-05-10T13:45:23;2.28;;;1.60;;
11121;SDS011;5615;49.304;10.576;2023-05-10T13:47:50;2.13;;;1.90;;
11121;SDS011;5615;49.304;10.576;2023-05-10T13:50:17;2.25;;;1.52;;
11121;SDS011;5615;49.304;10.576;2023-05-10T13:52:44;1.83;;;1.70;;
11121;SDS011;5615;49.304;10.576;2023-05-10T13:55:10;2.17;;;1.73;;
11121;SDS011;5615;49.304;10.576;2023-05-10T13:57:39;3.00;;;1.73;;
11121;SDS011;5615;49.304;10.576;2023-05-10T14:00:07;2.53;;;1.85;;
11121;SDS011;5615;49.304;10.576;2023-05-10T14:02:35;1.77;;;1.63;;
11121;SDS011;5615;49.304;10.576;2023-05-10T14:05:01;5.40;;;2.05;;
11121;SDS011;5615;49.304;10.576;2023-05-10T14:07:28;1.83;;;1.73;;
11121;SDS011;5615;49.304;10.576;2023-05-10T14:09:55;3.28;;;2.00;;
11121;SDS011;5615;49.304;10.576;2023-05-10T14:12:22;3.75;;;2.08;;
11121;SDS011;5615;49.304;10.576;2023-05-10T14:14:48;2.40;;;1.77;;
11121;SDS011;5615;49.304;10.576;2023-05-10T14:17:16;4.00;;;1.88;;
11121;SDS011;5615;49.304;10.576;2023-05-10T14:19:44;4.22;;;1.85;;
11121;SDS011;5615;49.304;10.576;2023-05-10T14:22:10;2.15;;;1.80;;
11121;SDS011;5615;49.304;10.576;2023-05-10T14:24:37;2.17;;;1.80;;
11121;SDS011;5615;49.304;10.576;2023-05-10T14:27:04;5.95;;;2.08;;
11121;SDS011;5615;49.304;10.576;2023-05-10T14:29:30;2.97;;;2.33;;
11121;SDS011;5615;49.304;10.576;2023-05-10T14:31:57;2.90;;;2.00;;
11121;SDS011;5615;49.304;10.576;2023-05-10T14:34:25;3.00;;;2.20;;
11121;SDS011;5615;49.304;10.576;2023-05-10T14:36:52;1.97;;;1.87;;
11121;SDS011;5615;49.304;10.576;2023-05-10T14:39:18;3.27;;;2.30;;
11121;SDS011;5615;49.304;10.576;2023-05-10T14:41:45;2.37;;;2.07;;
11121;SDS011;5615;49.304;10.576;2023-05-10T14:44:12;2.23;;;1.80;;
11121;SDS011;5615;49.304;10.576;2023-05-10T14:46:40;2.47;;;2.10;;
11121;SDS011;5615;49.304;10.576;2023-05-10T14:49:07;4.67;;;2.33;;
11121;SDS011;5615;49.304;10.576;2023-05-10T14:51:34;3.13;;;2.20;;
11121;SDS011;5615;49.304;10.576;2023-05-10T14:54:02;3.53;;;2.40;;
11121;SDS011;5615;49.304;10.576;2023-05-10T14:56:28;2.50;;;2.30;;
11121;SDS011;5615;49.304;10.576;2023-05-10T14:58:55;7.33;;;2.20;;
11121;SDS011;5615;49.304;10.576;2023-05-10T15:01:22;5.20;;;2.50;;
11121;SDS011;5615;49.304;10.576;2023-05-10T15:03:48;2.40;;;2.20;;